createdAt,value
2023-04-16T00:00:11.879Z,17.00
2023-04-16T00:02:40.186Z,17.00
2023-04-16T00:05:08.852Z,17.00
2023-04-16T00:07:36.934Z,17.00
2023-04-16T00:10:05.328Z,17.00
2023-04-16T00:12:34.776Z,17.00
2023-04-16T00:15:02.906Z,17.00
2023-04-16T00:17:31.041Z,17.00
2023-04-16T00:19:58.986Z,17.00
2023-04-16T00:22:26.904Z,17.00
2023-04-16T00:24:54.800Z,17.00
2023-04-16T00:27:22.741Z,17.00
2023-04-16T00:29:52.000Z,16.90
2023-04-16T00:32:19.936Z,16.90
2023-04-16T00:34:47.879Z,16.90
2023-04-16T00:37:15.875Z,16.90
2023-04-16T00:39:43.775Z,16.90
2023-04-16T00:42:11.729Z,16.90
2023-04-16T00:44:39.660Z,16.90
2023-04-16T00:47:09.069Z,16.90
2023-04-16T00:49:37.437Z,16.90
2023-04-16T00:52:05.649Z,16.90
2023-04-16T00:54:33.620Z,16.90
2023-04-16T00:57:01.645Z,16.90
2023-04-16T00:59:30.376Z,16.90
2023-04-16T01:01:58.437Z,16.90
2023-04-16T01:04:29.711Z,16.90
2023-04-16T01:06:57.724Z,16.90
2023-04-16T01:09:25.672Z,16.90
2023-04-16T01:11:53.605Z,16.90
2023-04-16T01:14:21.572Z,16.90
2023-04-16T01:16:49.547Z,16.90
2023-04-16T01:19:17.531Z,16.90
2023-04-16T01:21:46.828Z,16.90
2023-04-16T01:24:14.759Z,16.90
2023-04-16T01:26:42.686Z,16.90
2023-04-16T01:29:10.974Z,16.90
2023-04-16T01:31:39.166Z,16.90
2023-04-16T01:34:07.179Z,16.90
2023-04-16T01:36:35.200Z,16.90
2023-04-16T01:39:04.942Z,16.90
2023-04-16T01:41:33.040Z,16.90
2023-04-16T01:44:00.939Z,16.80
2023-04-16T01:46:30.334Z,16.80
2023-04-16T01:48:58.873Z,16.80
2023-04-16T01:51:27.196Z,16.90
2023-04-16T01:53:55.934Z,16.80
2023-04-16T01:56:25.283Z,16.80
2023-04-16T01:58:53.990Z,16.80
2023-04-16T02:01:22.105Z,16.80
2023-04-16T02:03:50.524Z,16.80
2023-04-16T02:06:18.498Z,16.80
2023-04-16T02:08:46.400Z,16.80
2023-04-16T02:11:14.340Z,16.80
2023-04-16T02:13:43.604Z,16.80
2023-04-16T02:16:11.653Z,16.80
2023-04-16T02:18:39.633Z,16.80
2023-04-16T02:21:07.782Z,16.80
2023-04-16T02:23:35.856Z,16.80
2023-04-16T02:26:04.522Z,16.80
2023-04-16T02:28:32.437Z,16.80
2023-04-16T02:31:01.756Z,16.80
2023-04-16T02:33:30.131Z,16.80
2023-04-16T02:35:58.120Z,16.80
2023-04-16T02:38:26.083Z,16.80
2023-04-16T02:40:53.999Z,16.80
2023-04-16T02:43:21.943Z,16.80
2023-04-16T02:45:49.884Z,16.80
2023-04-16T02:48:19.234Z,16.80
2023-04-16T02:50:47.163Z,16.80
2023-04-16T02:53:15.322Z,16.80
2023-04-16T02:55:45.314Z,16.80
2023-04-16T02:58:13.235Z,16.80
2023-04-16T03:00:41.231Z,16.80
2023-04-16T03:03:09.174Z,16.80
2023-04-16T03:05:40.217Z,16.80
2023-04-16T03:08:08.513Z,16.80
2023-04-16T03:10:36.479Z,16.70
2023-04-16T03:13:04.850Z,16.70
2023-04-16T03:15:32.799Z,16.80
2023-04-16T03:18:01.262Z,16.80
2023-04-16T03:20:29.246Z,16.70
2023-04-16T03:22:58.469Z,16.70
2023-04-16T03:25:26.413Z,16.70
2023-04-16T03:27:54.290Z,16.70
2023-04-16T03:30:22.274Z,16.70
2023-04-16T03:32:50.203Z,16.70
2023-04-16T03:35:18.351Z,16.70
2023-04-16T03:37:46.343Z,16.70
2023-04-16T03:40:15.924Z,16.80
2023-04-16T03:42:43.835Z,16.70
2023-04-16T03:45:12.201Z,16.70
2023-04-16T03:47:40.241Z,16.80
2023-04-16T03:50:08.884Z,16.80
2023-04-16T03:52:36.808Z,16.80
2023-04-16T03:55:05.361Z,16.80
2023-04-16T03:57:34.612Z,16.80
2023-04-16T04:00:02.550Z,16.80
2023-04-16T04:02:30.622Z,16.80
2023-04-16T04:04:58.743Z,16.80
2023-04-16T04:07:26.697Z,16.80
2023-04-16T04:09:54.601Z,16.80
2023-04-16T04:12:22.482Z,16.80
2023-04-16T04:14:51.738Z,16.80
2023-04-16T04:17:19.635Z,16.80
2023-04-16T04:20:00.502Z,16.80
2023-04-16T04:22:28.987Z,16.80
2023-04-16T04:24:56.933Z,16.80
2023-04-16T04:27:24.816Z,16.80
2023-04-16T04:29:54.555Z,16.80
2023-04-16T04:32:22.468Z,16.80
2023-04-16T04:34:50.677Z,16.80
2023-04-16T04:37:18.666Z,16.80
2023-04-16T04:39:46.589Z,16.80
2023-04-16T04:42:14.529Z,16.80
2023-04-16T04:44:42.430Z,16.80
2023-04-16T04:47:11.672Z,16.80
2023-04-16T04:49:39.615Z,16.80
2023-04-16T04:52:07.551Z,16.80
2023-04-16T04:54:35.654Z,16.80
2023-04-16T04:57:03.627Z,16.80
2023-04-16T04:59:31.637Z,16.80
2023-04-16T05:01:59.627Z,16.80
2023-04-16T05:04:28.892Z,16.80
2023-04-16T05:06:56.839Z,16.80
2023-04-16T05:09:24.784Z,16.80
2023-04-16T05:11:52.892Z,16.80
2023-04-16T05:14:21.043Z,16.80
2023-04-16T05:16:48.987Z,16.80
2023-04-16T05:19:18.188Z,16.80
2023-04-16T05:21:47.417Z,16.80
2023-04-16T05:24:15.337Z,16.80
2023-04-16T05:26:43.312Z,16.80
2023-04-16T05:29:11.348Z,16.80
2023-04-16T05:31:39.701Z,16.80
2023-04-16T05:34:07.660Z,16.80
2023-04-16T05:36:35.630Z,16.80
2023-04-16T05:39:05.093Z,16.80
2023-04-16T05:41:33.206Z,16.80
2023-04-16T05:44:01.288Z,16.80
2023-04-16T05:46:29.262Z,16.80
2023-04-16T05:48:57.232Z,16.80
2023-04-16T05:51:27.173Z,16.80
2023-04-16T05:53:55.076Z,16.80
2023-04-16T05:56:25.308Z,16.80
2023-04-16T05:58:53.247Z,16.80
2023-04-16T06:01:22.241Z,16.80
2023-04-16T06:03:50.543Z,16.80
2023-04-16T06:06:18.505Z,16.80
2023-04-16T06:08:46.426Z,16.80
2023-04-16T06:11:14.407Z,16.80
2023-04-16T06:13:43.768Z,16.80
2023-04-16T06:16:11.788Z,16.80
2023-04-16T06:18:39.697Z,16.80
2023-04-16T06:21:07.635Z,16.80
2023-04-16T06:23:35.607Z,16.80
2023-04-16T06:26:03.531Z,16.80
2023-04-16T06:28:31.479Z,16.80
2023-04-16T06:31:01.156Z,16.80
2023-04-16T06:33:29.188Z,16.90
2023-04-16T06:35:57.075Z,16.90
2023-04-16T06:38:25.079Z,16.90
2023-04-16T06:40:53.043Z,16.90
2023-04-16T06:43:21.657Z,16.90
2023-04-16T06:45:50.010Z,16.90
2023-04-16T06:48:19.299Z,16.90
2023-04-16T06:50:47.203Z,16.90
2023-04-16T06:53:15.331Z,16.90
2023-04-16T06:55:43.257Z,17.00
2023-04-16T06:58:11.209Z,17.00
2023-04-16T07:00:39.171Z,17.00
2023-04-16T07:03:07.411Z,17.00
2023-04-16T07:05:36.883Z,17.00
2023-04-16T07:08:04.978Z,17.10
2023-04-16T07:10:33.058Z,17.10
2023-04-16T07:13:01.512Z,17.10
2023-04-16T07:15:29.531Z,17.10
2023-04-16T07:17:57.554Z,17.10
2023-04-16T07:20:25.674Z,17.10
2023-04-16T07:22:54.973Z,17.10
2023-04-16T07:25:23.035Z,17.10
2023-04-16T07:27:50.944Z,17.10
2023-04-16T07:30:19.057Z,17.10
2023-04-16T07:32:47.029Z,17.10
2023-04-16T07:35:15.056Z,17.10
2023-04-16T07:37:42.951Z,17.10
2023-04-16T07:40:13.142Z,17.10
2023-04-16T07:42:41.128Z,17.10
2023-04-16T07:45:10.179Z,17.10
2023-04-16T07:47:38.287Z,17.10
2023-04-16T07:50:07.557Z,17.10
2023-04-16T07:52:35.502Z,17.10
2023-04-16T07:55:03.478Z,17.10
2023-04-16T07:57:32.843Z,17.10
2023-04-16T08:00:02.074Z,17.10
2023-04-16T08:02:30.239Z,17.10
2023-04-16T08:04:58.329Z,17.10
2023-04-16T08:07:26.472Z,17.10
2023-04-16T08:09:54.766Z,17.10
2023-04-16T08:12:23.065Z,17.10
2023-04-16T08:14:52.354Z,17.10
2023-04-16T08:17:20.284Z,17.10
2023-04-16T08:19:48.378Z,17.10
2023-04-16T08:22:16.627Z,17.10
2023-04-16T08:24:44.606Z,17.10
2023-04-16T08:27:19.035Z,17.10
2023-04-16T08:29:48.648Z,17.20
2023-04-16T08:32:17.914Z,17.20
2023-04-16T08:34:45.915Z,17.20
2023-04-16T08:37:13.839Z,17.10
2023-04-16T08:39:41.845Z,17.10
2023-04-16T08:42:19.071Z,17.10
2023-04-16T08:44:50.187Z,17.10
2023-04-16T08:47:21.086Z,17.10
2023-04-16T08:49:49.059Z,17.10
2023-04-16T08:52:20.894Z,17.10
2023-04-16T08:54:58.288Z,17.10
2023-04-16T08:57:31.475Z,17.10
2023-04-16T09:00:00.502Z,17.10
2023-04-16T09:02:30.570Z,17.10
2023-04-16T09:05:00.816Z,17.10
2023-04-16T09:07:29.948Z,17.10
2023-04-16T09:10:00.438Z,17.10
2023-04-16T09:12:28.548Z,17.10
2023-04-16T09:14:59.737Z,17.10
2023-04-16T09:17:29.278Z,17.10
2023-04-16T09:19:57.271Z,17.10
2023-04-16T09:22:25.197Z,17.10
2023-04-16T09:24:53.150Z,17.20
2023-04-16T09:27:23.745Z,17.20
2023-04-16T09:29:53.561Z,17.20
2023-04-16T09:32:27.170Z,17.20
2023-04-16T09:34:58.660Z,17.10
2023-04-16T09:37:27.452Z,17.10
2023-04-16T09:39:58.023Z,17.10
2023-04-16T09:42:28.323Z,17.10
2023-04-16T09:44:58.864Z,17.10
2023-04-16T09:47:40.268Z,17.10
2023-04-16T09:50:12.623Z,17.10
2023-04-16T09:52:41.253Z,17.10
2023-04-16T09:55:09.573Z,17.10
2023-04-16T09:57:39.462Z,17.10
2023-04-16T10:00:10.336Z,17.10
2023-04-16T10:02:41.950Z,17.10
2023-04-16T10:05:16.821Z,17.10
2023-04-16T10:07:44.813Z,17.10
2023-04-16T10:10:12.831Z,17.10
2023-04-16T10:12:41.065Z,17.10
2023-04-16T10:15:09.542Z,17.10
2023-04-16T10:17:38.128Z,17.10
2023-04-16T10:20:08.192Z,17.10
2023-04-16T10:22:38.382Z,17.10
2023-04-16T10:25:07.793Z,17.10
2023-04-16T10:27:37.649Z,17.10
2023-04-16T10:30:08.669Z,17.10
2023-04-16T10:32:38.052Z,17.10
2023-04-16T10:35:07.265Z,17.10
2023-04-16T10:37:35.391Z,17.10
2023-04-16T10:40:23.904Z,17.10
2023-04-16T10:42:56.504Z,17.10
2023-04-16T10:45:31.418Z,17.10
2023-04-16T10:47:59.606Z,17.10
2023-04-16T10:50:35.993Z,17.10
2023-04-16T10:53:20.347Z,17.10
2023-04-16T10:56:15.478Z,17.10
2023-04-16T10:58:43.768Z,17.10
2023-04-16T11:01:16.482Z,17.10
2023-04-16T11:03:47.513Z,17.10
2023-04-16T11:06:18.464Z,17.10
2023-04-16T11:08:54.753Z,17.10
2023-04-16T11:11:24.753Z,17.10
2023-04-16T11:13:56.936Z,17.10
2023-04-16T11:16:26.473Z,17.10
2023-04-16T11:18:56.342Z,17.10
2023-04-16T11:21:25.261Z,17.10
2023-04-16T11:23:54.389Z,17.10
2023-04-16T11:26:28.235Z,17.10
2023-04-16T11:28:57.468Z,17.10
2023-04-16T11:31:27.065Z,17.10
2023-04-16T11:33:57.561Z,17.10
2023-04-16T11:36:27.696Z,17.00
2023-04-16T11:39:03.662Z,17.10
2023-04-16T11:41:33.039Z,17.10
2023-04-16T11:44:01.298Z,17.00
2023-04-16T11:46:40.476Z,17.10
2023-04-16T11:49:08.873Z,17.10
2023-04-16T11:51:41.221Z,17.10
2023-04-16T11:54:11.866Z,17.10
2023-04-16T11:56:47.723Z,17.10
2023-04-16T11:59:17.252Z,17.10
2023-04-16T12:01:48.233Z,17.10
2023-04-16T12:04:17.681Z,17.10
2023-04-16T12:07:10.536Z,17.10
2023-04-16T12:09:40.980Z,17.10
2023-04-16T12:12:30.567Z,17.10
2023-04-16T12:15:03.078Z,17.10
2023-04-16T12:17:31.671Z,17.10
2023-04-16T12:20:00.704Z,17.10
2023-04-16T12:22:29.996Z,17.10
2023-04-16T12:25:00.523Z,17.10
2023-04-16T12:27:43.179Z,17.10
2023-04-16T12:30:12.084Z,17.10
2023-04-16T12:32:40.327Z,17.10
2023-04-16T12:35:09.251Z,17.10
2023-04-16T12:37:37.294Z,17.10
2023-04-16T12:40:06.934Z,17.10
2023-04-16T12:42:36.772Z,17.10
2023-04-16T12:45:11.634Z,17.10
2023-04-16T12:47:39.579Z,17.10
2023-04-16T12:50:08.405Z,17.10
2023-04-16T12:52:36.758Z,17.10
2023-04-16T12:55:04.836Z,17.10
2023-04-16T12:57:32.728Z,17.10
2023-04-16T13:00:02.104Z,17.10
2023-04-16T13:02:30.160Z,17.10
2023-04-16T13:04:58.135Z,17.10
2023-04-16T13:07:26.735Z,17.10
2023-04-16T13:09:54.829Z,17.10
2023-04-16T13:12:22.755Z,17.10
2023-04-16T13:14:50.678Z,17.10
2023-04-16T13:17:19.942Z,17.10
2023-04-16T13:19:47.903Z,17.10
2023-04-16T13:22:15.991Z,17.10
2023-04-16T13:24:43.982Z,17.10
2023-04-16T13:27:12.517Z,17.10
2023-04-16T13:29:40.407Z,17.10
2023-04-16T13:32:08.281Z,17.10
2023-04-16T13:34:37.569Z,17.10
2023-04-16T13:37:06.160Z,17.10
2023-04-16T13:39:34.830Z,17.10
2023-04-16T13:42:02.816Z,17.10
2023-04-16T13:44:30.692Z,17.10
2023-04-16T13:46:58.681Z,17.10
2023-04-16T13:49:26.768Z,17.10
2023-04-16T13:51:59.592Z,17.10
2023-04-16T13:54:28.120Z,17.10
2023-04-16T13:56:55.992Z,17.10
2023-04-16T13:59:23.920Z,17.10
2023-04-16T14:02:08.031Z,17.10
2023-04-16T14:04:37.845Z,17.10
2023-04-16T14:07:07.057Z,17.10
2023-04-16T14:09:35.005Z,17.10
2023-04-16T14:12:02.977Z,17.10
2023-04-16T14:14:31.217Z,17.10
2023-04-16T14:16:59.445Z,17.10
2023-04-16T14:19:27.369Z,17.10
2023-04-16T14:21:55.354Z,17.10
2023-04-16T14:24:24.702Z,17.10
2023-04-16T14:26:52.687Z,17.10
2023-04-16T14:29:20.864Z,17.10
2023-04-16T14:31:50.228Z,17.10
2023-04-16T14:34:18.321Z,17.10
2023-04-16T14:36:46.341Z,17.10
2023-04-16T14:39:14.384Z,17.10
2023-04-16T14:41:43.601Z,17.10
2023-04-16T14:44:11.473Z,17.10
2023-04-16T14:46:40.969Z,17.10
2023-04-16T14:49:11.992Z,17.10
2023-04-16T14:51:40.410Z,17.10
2023-04-16T14:54:08.757Z,17.10
2023-04-16T14:56:36.686Z,17.10
2023-04-16T14:59:06.721Z,17.10
2023-04-16T15:01:36.117Z,17.10
2023-04-16T15:04:04.477Z,17.10
2023-04-16T15:06:33.065Z,17.10
2023-04-16T15:09:00.970Z,17.10
2023-04-16T15:11:28.828Z,17.10
2023-04-16T15:13:56.836Z,17.10
2023-04-16T15:16:26.158Z,17.10
2023-04-16T15:18:54.181Z,17.10
2023-04-16T15:21:22.292Z,17.10
2023-04-16T15:23:50.310Z,17.10
2023-04-16T15:26:18.217Z,17.10
2023-04-16T15:28:46.124Z,17.10
2023-04-16T15:31:14.061Z,17.10
2023-04-16T15:33:43.343Z,17.10
2023-04-16T15:36:11.341Z,17.10
2023-04-16T15:38:39.324Z,17.20
2023-04-16T15:41:07.211Z,17.20
2023-04-16T15:43:35.135Z,17.20
2023-04-16T15:46:03.149Z,17.20
2023-04-16T15:48:31.072Z,17.20
2023-04-16T15:51:00.375Z,17.20
2023-04-16T15:53:28.349Z,17.20
2023-04-16T15:55:56.264Z,17.20
2023-04-16T15:58:24.203Z,17.20
2023-04-16T16:00:52.239Z,17.20
2023-04-16T16:03:21.482Z,17.20
2023-04-16T16:05:49.650Z,17.20
2023-04-16T16:08:18.964Z,17.20
2023-04-16T16:10:46.944Z,17.20
2023-04-16T16:13:18.017Z,17.20
2023-04-16T16:15:46.262Z,17.20
2023-04-16T16:18:14.182Z,17.20
2023-04-16T16:20:42.051Z,17.20
2023-04-16T16:23:10.228Z,17.20
2023-04-16T16:25:39.585Z,17.20
2023-04-16T16:28:07.461Z,17.30
2023-04-16T16:30:35.437Z,17.30
2023-04-16T16:33:03.355Z,17.20
2023-04-16T16:35:32.205Z,17.30
2023-04-16T16:38:01.665Z,17.30
2023-04-16T16:40:29.801Z,17.30
2023-04-16T16:42:59.161Z,17.30
2023-04-16T16:45:27.189Z,17.30
2023-04-16T16:47:55.444Z,17.30
2023-04-16T16:50:23.345Z,17.30
2023-04-16T16:52:51.478Z,17.30
2023-04-16T16:55:20.719Z,17.30
2023-04-16T16:57:51.527Z,17.30
2023-04-16T17:00:21.799Z,17.30
2023-04-16T17:02:51.128Z,17.30
2023-04-16T17:05:19.878Z,17.30
2023-04-16T17:07:47.894Z,17.30
2023-04-16T17:10:20.083Z,17.30
2023-04-16T17:12:49.022Z,17.30
2023-04-16T17:15:19.146Z,17.30
2023-04-16T17:17:50.084Z,17.30
2023-04-16T17:20:18.170Z,17.30
2023-04-16T17:22:46.111Z,17.30
2023-04-16T17:25:14.219Z,17.30
2023-04-16T17:27:42.126Z,17.30
2023-04-16T17:30:11.164Z,17.30
2023-04-16T17:32:39.171Z,17.30
2023-04-16T17:35:10.000Z,17.30
2023-04-16T17:37:37.991Z,17.40
2023-04-16T17:40:07.456Z,17.30
2023-04-16T17:42:35.758Z,17.30
2023-04-16T17:45:04.139Z,17.40
2023-04-16T17:47:32.066Z,17.40
2023-04-16T17:50:00.000Z,17.40
2023-04-16T17:52:29.372Z,17.40
2023-04-16T17:55:01.215Z,17.30
2023-04-16T17:57:29.408Z,17.40
2023-04-16T17:59:57.899Z,17.40
2023-04-16T18:02:26.207Z,17.40
2023-04-16T18:04:54.354Z,17.40
2023-04-16T18:07:22.371Z,17.40
2023-04-16T18:09:51.612Z,17.40
2023-04-16T18:12:19.529Z,17.40
2023-04-16T18:14:53.980Z,17.40
2023-04-16T18:17:22.781Z,17.40
2023-04-16T18:19:50.705Z,17.40
2023-04-16T18:22:18.584Z,17.40
2023-04-16T18:24:46.831Z,17.40
2023-04-16T18:27:16.516Z,17.40
2023-04-16T18:29:45.317Z,17.40
2023-04-16T18:32:13.324Z,17.40
2023-04-16T18:34:41.406Z,17.40
2023-04-16T18:37:09.408Z,17.40
2023-04-16T18:39:37.593Z,17.40
2023-04-16T18:42:05.682Z,17.40
2023-04-16T18:44:35.346Z,17.40
2023-04-16T18:47:03.267Z,17.40
2023-04-16T18:49:31.200Z,17.40
2023-04-16T18:51:59.079Z,17.40
2023-04-16T18:54:27.570Z,17.40
2023-04-16T18:56:56.607Z,17.40
2023-04-16T18:59:25.757Z,17.40
2023-04-16T19:01:55.080Z,17.40
2023-04-16T19:04:23.130Z,17.40
2023-04-16T19:06:51.056Z,17.40
2023-04-16T19:09:19.924Z,17.40
2023-04-16T19:11:50.328Z,17.40
2023-04-16T19:14:18.247Z,17.50
2023-04-16T19:16:46.315Z,17.40
2023-04-16T19:19:15.671Z,17.50
2023-04-16T19:21:43.611Z,17.50
2023-04-16T19:24:11.681Z,17.40
2023-04-16T19:26:39.608Z,17.50
2023-04-16T19:29:07.654Z,17.40
2023-04-16T19:31:35.656Z,17.40
2023-04-16T19:34:03.783Z,17.40
2023-04-16T19:36:33.230Z,17.50
2023-04-16T19:39:01.261Z,17.50
2023-04-16T19:41:29.236Z,17.50
2023-04-16T19:43:57.201Z,17.50
2023-04-16T19:46:25.215Z,17.50
2023-04-16T19:48:53.200Z,17.50
2023-04-16T19:51:21.190Z,17.50
2023-04-16T19:53:50.546Z,17.50
2023-04-16T19:56:18.502Z,17.50
2023-04-16T19:58:46.449Z,17.50
2023-04-16T20:01:14.589Z,17.50
2023-04-16T20:03:42.602Z,17.50
2023-04-16T20:06:10.592Z,17.50
2023-04-16T20:08:38.611Z,17.50
2023-04-16T20:11:08.862Z,17.50
2023-04-16T20:13:37.554Z,17.50
2023-04-16T20:16:05.727Z,17.50
2023-04-16T20:18:41.073Z,17.50
2023-04-16T20:21:09.175Z,17.50
2023-04-16T20:23:37.085Z,17.50
2023-04-16T20:26:05.350Z,17.50
2023-04-16T20:28:34.604Z,17.50
2023-04-16T20:31:02.587Z,17.50
2023-04-16T20:33:30.644Z,17.50
2023-04-16T20:35:58.561Z,17.50
2023-04-16T20:38:26.491Z,17.50
2023-04-16T20:41:06.093Z,17.40
2023-04-16T20:43:38.586Z,17.50
2023-04-16T20:46:06.702Z,17.50
2023-04-16T20:48:34.953Z,17.50
2023-04-16T20:51:04.054Z,17.50
2023-04-16T20:53:33.111Z,17.50
2023-04-16T20:56:01.266Z,17.50
2023-04-16T20:58:29.444Z,17.50
2023-04-16T21:00:58.933Z,17.50
2023-04-16T21:03:27.104Z,17.50
2023-04-16T21:05:56.455Z,17.50
2023-04-16T21:08:25.487Z,17.50
2023-04-16T21:10:53.445Z,17.50
2023-04-16T21:13:21.831Z,17.50
2023-04-16T21:15:49.838Z,17.50
2023-04-16T21:18:19.430Z,17.50
2023-04-16T21:20:47.415Z,17.50
2023-04-16T21:23:15.502Z,17.50
2023-04-16T21:25:43.409Z,17.50
2023-04-16T21:28:11.394Z,17.50
2023-04-16T21:30:39.334Z,17.50
2023-04-16T21:33:07.798Z,17.50
2023-04-16T21:35:37.054Z,17.50
2023-04-16T21:38:04.960Z,17.50
2023-04-16T21:40:32.865Z,17.50
2023-04-16T21:43:01.042Z,17.50
2023-04-16T21:45:30.501Z,17.50
2023-04-16T21:47:59.276Z,17.50
2023-04-16T21:50:27.231Z,17.50
2023-04-16T21:52:56.468Z,17.40
2023-04-16T21:55:24.686Z,17.50
2023-04-16T21:57:52.616Z,17.50
2023-04-16T22:00:21.244Z,17.50
2023-04-16T22:02:49.307Z,17.40
2023-04-16T22:05:17.562Z,17.40
2023-04-16T22:07:45.621Z,17.40
2023-04-16T22:10:15.354Z,17.40
2023-04-16T22:12:44.670Z,17.40
2023-04-16T22:15:14.215Z,17.40
2023-04-16T22:17:42.325Z,17.40
2023-04-16T22:20:12.661Z,17.40
2023-04-16T22:22:41.097Z,17.40
2023-04-16T22:25:09.543Z,17.40
2023-04-16T22:27:39.019Z,17.40
2023-04-16T22:30:08.569Z,17.30
2023-04-16T22:32:36.657Z,17.30
2023-04-16T22:35:05.176Z,17.30
2023-04-16T22:37:33.497Z,17.30
2023-04-16T22:40:01.559Z,17.30
2023-04-16T22:42:29.520Z,17.30
2023-04-16T22:44:58.927Z,17.30
2023-04-16T22:47:26.912Z,17.30
2023-04-16T22:49:54.882Z,17.30
2023-04-16T22:52:22.801Z,17.30
2023-04-16T22:54:50.688Z,17.30
2023-04-16T22:57:21.090Z,17.30
2023-04-16T22:59:49.111Z,17.30
2023-04-16T23:02:18.516Z,17.30
2023-04-16T23:04:47.796Z,17.30
2023-04-16T23:07:16.553Z,17.30
2023-04-16T23:09:44.523Z,17.30
2023-04-16T23:12:12.534Z,17.20
2023-04-16T23:14:46.045Z,17.20
2023-04-16T23:17:14.239Z,17.20
2023-04-16T23:19:43.564Z,17.20
2023-04-16T23:22:11.509Z,17.20
2023-04-16T23:24:39.437Z,17.20
2023-04-16T23:27:07.311Z,17.20
2023-04-16T23:29:35.234Z,17.20
2023-04-16T23:32:03.121Z,17.20
2023-04-16T23:34:31.039Z,17.20
2023-04-16T23:37:00.273Z,17.20
2023-04-16T23:39:28.206Z,17.20
2023-04-16T23:41:57.117Z,17.20
2023-04-16T23:44:25.155Z,17.20
2023-04-16T23:46:53.163Z,17.20
2023-04-16T23:49:21.364Z,17.20
2023-04-16T23:51:49.298Z,17.20
2023-04-16T23:54:18.708Z,17.10
2023-04-16T23:56:46.788Z,17.10
2023-04-16T23:59:14.779Z,17.10
